Time;durP1;ratioP1;P1;durP2;ratioP2;P2;SDS_P1;SDS_P2;PMS_P1;PMS_P2;Temp;Humidity;BMP_temperature;BMP_pressure;BME280_temperature;BME280_humidity;BME280_pressure;Samples;Min_cycle;Max_cycle;Signal;HPM_P1;HPM_P2
2022/12/26 07:01:38;;;;;;;;;2.00;2.00;;;;;18.63;55.50;101390.53;5084843;27;45902;-80
2022/12/26 07:04:04;;;;;;;;;3.33;2.00;;;;;19.11;56.12;101391.28;5050717;27;45848;-82
2022/12/26 07:06:32;;;;;;;;;1.67;1.00;;;;;19.71;56.29;101399.88;5064285;28;45529;-78
2022/12/26 07:09:00;;;;;;;;;0.33;0.33;;;;;20.36;55.97;101398.19;5066560;27;45567;-82
2022/12/26 07:11:29;;;;;;;;;0.00;0.00;;;;;20.95;55.68;101398.53;5061810;28;45484;-81
2022/12/26 07:13:55;;;;;;;;;1.00;1.00;;;;;21.48;55.20;101395.69;5059735;28;45355;-80
2022/12/26 07:16:21;;;;;;;;;0.67;0.67;;;;;21.96;55.10;101411.16;5070218;27;45466;-76
2022/12/26 07:18:46;;;;;;;;;2.33;1.00;;;;;22.41;54.33;101413.41;5069552;27;45576;-77
2022/12/26 07:21:14;;;;;;;;;2.00;0.00;;;;;22.78;54.20;101418.06;5065938;27;46281;-79
2022/12/26 07:23:40;;;;;;;;;1.00;1.00;;;;;23.11;53.67;101417.63;5057131;28;45801;-82
2022/12/26 07:26:06;;;;;;;;;1.00;1.00;;;;;23.37;53.46;101420.53;5069808;28;45376;-80
2022/12/26 07:28:32;;;;;;;;;1.00;1.00;;;;;23.62;53.00;101412.69;5070264;28;45585;-79
2022/12/26 07:30:59;;;;;;;;;1.00;1.00;;;;;23.80;53.06;101420.81;5070797;27;45973;-78
2022/12/26 07:33:25;;;;;;;;;0.33;0.33;;;;;23.99;52.44;101440.66;5051572;28;45396;-80
2022/12/26 07:35:50;;;;;;;;;1.00;1.00;;;;;24.16;52.37;101430.00;5079573;27;45481;-82
2022/12/26 07:38:16;;;;;;;;;0.67;0.67;;;;;24.31;52.02;101430.28;5101668;27;45476;-84
2022/12/26 07:40:41;;;;;;;;;1.00;1.00;;;;;24.45;51.80;101424.28;5076614;27;45308;-82
2022/12/26 07:43:06;;;;;;;;;0.00;0.00;;;;;24.58;51.21;101423.88;5071013;27;45729;-80
2022/12/26 07:45:32;;;;;;;;;0.67;0.67;;;;;24.71;51.33;101425.31;5070075;27;45449;-81
2022/12/26 07:47:57;;;;;;;;;0.00;0.00;;;;;24.84;51.24;101422.19;5055163;28;45375;-79
2022/12/26 07:50:25;;;;;;;;;0.00;0.00;;;;;24.93;50.69;101428.53;5065710;28;47437;-77
2022/12/26 07:52:50;;;;;;;;;0.00;0.00;;;;;25.02;50.63;101433.00;5065780;27;45597;-80
2022/12/26 07:55:16;;;;;;;;;0.00;0.00;;;;;25.10;50.79;101426.75;5066161;28;45958;-81
2022/12/26 07:57:41;;;;;;;;;1.00;1.00;;;;;25.21;50.25;101425.59;5065223;27;45478;-80
2022/12/26 08:00:07;;;;;;;;;1.00;1.00;;;;;25.27;50.54;101425.78;5075542;27;51044;-79
2022/12/26 08:02:33;;;;;;;;;1.00;1.00;;;;;25.35;49.97;101435.84;5089149;27;45450;-90
2022/12/26 08:04:58;;;;;;;;;3.00;1.00;;;;;25.44;50.00;101431.28;5085231;27;45786;-87
2022/12/26 08:07:23;;;;;;;;;0.00;0.00;;;;;25.49;49.83;101434.38;5088151;27;45483;-80
2022/12/26 08:09:49;;;;;;;;;0.00;0.00;;;;;25.55;49.45;101432.00;5087436;27;45589;-80
2022/12/26 08:12:14;;;;;;;;;1.00;1.00;;;;;25.56;49.67;101434.59;5079836;27;45607;-79
2022/12/26 08:14:40;;;;;;;;;1.00;1.00;;;;;25.59;49.64;101445.13;5076507;27;45496;-81
2022/12/26 08:17:06;;;;;;;;;0.00;0.00;;;;;25.59;49.33;101453.25;5075357;28;45486;-84
2022/12/26 08:19:31;;;;;;;;;0.00;0.00;;;;;25.61;49.12;101458.53;5073291;27;46816;-84
2022/12/26 08:21:57;;;;;;;;;0.67;0.67;;;;;25.64;48.79;101455.50;5074282;27;45360;-85
2022/12/26 08:24:23;;;;;;;;;2.00;1.00;;;;;25.63;48.47;101454.63;5075797;27;45492;-84
2022/12/26 08:26:48;;;;;;;;;0.00;0.00;;;;;25.64;48.31;101450.06;5071426;27;45462;-84
2022/12/26 08:29:13;;;;;;;;;1.00;1.00;;;;;25.63;48.75;101457.34;5064943;28;47103;-84
2022/12/26 08:31:39;;;;;;;;;1.00;0.33;;;;;25.65;48.09;101463.50;5074347;27;45384;-84
2022/12/26 08:34:04;;;;;;;;;0.00;0.00;;;;;25.70;48.27;101456.72;5068030;28;45378;-84
2022/12/26 08:36:29;;;;;;;;;1.00;1.00;;;;;25.74;48.12;101453.50;5077502;28;45456;-86
2022/12/26 08:38:57;;;;;;;;;0.00;0.00;;;;;25.78;48.01;101473.88;5073122;27;51548;-79
2022/12/26 08:41:22;;;;;;;;;0.33;0.33;;;;;25.83;48.10;101478.00;5072514;27;45448;-81
2022/12/26 08:43:49;;;;;;;;;0.00;0.00;;;;;25.85;47.51;101487.69;5058083;28;45460;-80
2022/12/26 08:46:16;;;;;;;;;0.00;0.00;;;;;25.87;47.74;101487.50;5066813;28;47275;-79
2022/12/26 08:48:41;;;;;;;;;0.00;0.00;;;;;25.89;47.48;101494.50;5072025;27;45395;-80
2022/12/26 08:51:13;;;;;;;;;0.00;0.00;;;;;25.90;47.37;101493.47;5075503;28;47403;-81
2022/12/26 08:53:39;;;;;;;;;0.00;0.00;;;;;25.90;47.45;101503.47;5075050;28;45454;-80
2022/12/26 08:56:06;;;;;;;;;1.00;0.67;;;;;25.90;47.02;101506.19;5073775;27;45585;-80
2022/12/26 08:58:32;;;;;;;;;0.33;0.33;;;;;25.90;47.26;101515.22;5070144;28;46861;-81
2022/12/26 09:01:11;;;;;;;;;0.00;0.00;;;;;25.89;47.17;101521.69;5076171;28;45441;-83
2022/12/26 09:03:38;;;;;;;;;0.67;0.67;;;;;25.88;46.56;101530.00;5073091;28;45424;-80
2022/12/26 09:06:04;;;;;;;;;1.33;1.00;;;;;25.87;46.74;101531.03;5069371;28;45547;-81
2022/12/26 09:08:30;;;;;;;;;1.00;1.00;;;;;25.86;46.53;101529.28;5074950;28;45395;-80
2022/12/26 09:11:11;;;;;;;;;1.00;1.00;;;;;25.83;47.05;101529.66;5067600;27;45736;-80
2022/12/26 09:13:37;;;;;;;;;0.00;0.00;;;;;25.82;46.41;101538.81;5071178;28;45536;-80
2022/12/26 09:16:17;;;;;;;;;1.00;1.00;;;;;25.84;46.51;101540.38;5058535;28;45380;-79
2022/12/26 09:18:44;;;;;;;;;0.00;0.00;;;;;25.83;46.26;101548.69;5066262;27;46541;-83
2022/12/26 09:21:11;;;;;;;;;0.00;0.00;;;;;25.82;46.45;101553.25;5076657;27;45629;-81
2022/12/26 09:23:37;;;;;;;;;1.00;1.00;;;;;25.80;46.13;101558.03;5063109;28;45433;-82
2022/12/26 09:26:17;;;;;;;;;1.33;1.00;;;;;25.79;45.88;101556.31;5056187;28;45323;-85
2022/12/26 09:28:44;;;;;;;;;1.33;1.33;;;;;25.76;46.04;101562.91;5072103;27;45869;-83
2022/12/26 09:31:12;;;;;;;;;2.00;2.00;;;;;25.75;45.71;101566.66;5074112;28;45628;-79
2022/12/26 09:33:38;;;;;;;;;3.33;3.33;;;;;25.72;45.89;101564.28;5056688;28;45511;-82
2022/12/26 09:36:13;;;;;;;;;3.00;3.00;;;;;25.66;45.70;101545.88;5077667;27;45545;-79
2022/12/26 09:38:38;;;;;;;;;5.00;5.00;;;;;25.70;46.05;101562.75;5071686;27;46195;-79
2022/12/26 09:41:29;;;;;;;;;6.33;5.33;;;;;25.69;45.86;101569.16;5072701;27;46954;-80
2022/12/26 09:44:14;;;;;;;;;4.67;4.33;;;;;25.65;45.98;101572.22;5064770;28;45507;-79
2022/12/26 09:46:45;;;;;;;;;4.67;3.67;;;;;25.63;45.86;101587.00;5076492;28;45419;-80
2022/12/26 09:49:24;;;;;;;;;5.67;4.67;;;;;25.59;45.84;101588.34;5066627;27;45500;-81
2022/12/26 09:51:54;;;;;;;;;4.33;4.33;;;;;25.56;45.55;101580.50;5075895;28;45757;-80
2022/12/26 09:54:32;;;;;;;;;5.67;5.67;;;;;25.57;45.17;101593.06;5075328;27;45614;-79
2022/12/26 09:56:59;;;;;;;;;6.00;6.00;;;;;25.56;44.99;101591.38;5079919;27;45531;-83
2022/12/26 09:59:26;;;;;;;;;4.00;4.00;;;;;25.55;45.64;101592.34;5058296;27;45853;-84
2022/12/26 10:01:52;;;;;;;;;4.67;4.67;;;;;25.56;44.92;101588.66;5044552;28;45570;-83
2022/12/26 10:04:28;;;;;;;;;4.00;4.00;;;;;25.54;45.35;101591.50;5071797;28;45459;-82
2022/12/26 10:07:12;;;;;;;;;5.67;4.67;;;;;25.53;45.71;101592.50;5072152;28;45503;-82
2022/12/26 10:09:54;;;;;;;;;3.67;3.00;;;;;25.52;45.39;101586.25;5063682;28;45462;-82
2022/12/26 10:13:04;;;;;;;;;3.00;3.00;;;;;25.52;45.07;101597.13;5066175;28;45543;-82
2022/12/26 10:15:52;;;;;;;;;3.00;3.00;;;;;25.51;45.01;101600.00;4989405;28;45638;-83
2022/12/26 10:18:38;;;;;;;;;4.00;2.33;;;;;25.50;44.95;101593.69;4989899;28;45385;-82
2022/12/26 10:21:21;;;;;;;;;2.67;2.67;;;;;25.49;45.01;101597.44;4989864;28;45493;-83
2022/12/26 10:23:53;;;;;;;;;2.33;2.33;;;;;25.48;44.83;101598.44;4990945;28;45547;-82
2022/12/26 10:26:27;;;;;;;;;4.33;3.67;;;;;25.48;44.71;101592.16;4988913;28;45486;-82
2022/12/26 10:29:11;;;;;;;;;3.00;3.00;;;;;25.47;44.72;101598.59;4992919;28;45482;-81
2022/12/26 10:31:58;;;;;;;;;1.67;1.67;;;;;25.45;45.07;101582.47;4994856;28;46399;-82
2022/12/26 10:34:34;;;;;;;;;3.00;3.00;;;;;25.45;44.67;101581.59;4991970;28;45403;-83
2022/12/26 10:37:06;;;;;;;;;3.00;3.00;;;;;25.43;44.84;101579.06;5005819;28;45479;-90
2022/12/26 10:39:38;;;;;;;;;2.00;2.00;;;;;25.44;45.15;101580.75;4995238;28;45580;-88
2022/12/26 10:42:30;;;;;;;;;1.33;1.33;;;;;25.48;44.68;101571.28;4979259;28;47252;-86
2022/12/26 10:44:57;;;;;;;;;2.00;2.00;;;;;25.53;44.79;101573.50;4991830;28;45538;-85
2022/12/26 10:47:25;;;;;;;;;2.33;2.33;;;;;25.56;44.54;101581.38;4992545;28;45605;-84
2022/12/26 10:49:51;;;;;;;;;5.67;3.00;;;;;25.58;44.23;101578.50;4994572;28;45563;-96
2022/12/26 10:52:20;;;;;;;;;1.33;1.33;;;;;25.61;44.55;101578.16;5027567;27;45762;-87
2022/12/26 10:54:52;;;;;;;;;2.00;2.00;;;;;25.63;44.54;101587.84;5070689;28;45482;-87
2022/12/26 10:57:18;;;;;;;;;3.00;3.00;;;;;25.66;44.45;101592.09;5074158;27;45311;-93
2022/12/26 10:59:47;;;;;;;;;2.67;2.00;;;;;25.70;44.63;101596.19;5070548;28;45380;-91
2022/12/26 11:02:23;;;;;;;;;2.67;2.67;;;;;25.73;44.35;101595.03;5073778;28;46482;-92
2022/12/26 11:05:08;;;;;;;;;4.00;2.00;;;;;25.75;44.59;101599.28;5076013;28;45514;-86
2022/12/26 11:07:38;;;;;;;;;2.00;2.00;;;;;25.77;44.02;101601.84;5071389;28;45521;-89
2022/12/26 11:10:16;;;;;;;;;2.67;2.67;;;;;25.77;44.02;101599.13;5074038;28;45559;-86
2022/12/26 11:12:49;;;;;;;;;2.33;2.33;;;;;25.79;44.49;101597.94;5073605;28;45759;-85
2022/12/26 11:15:36;;;;;;;;;3.33;2.67;;;;;25.81;44.28;101594.19;5074752;28;45667;-86
2022/12/26 11:18:14;;;;;;;;;4.00;2.00;;;;;25.81;44.19;101595.06;5065027;27;45387;-85
2022/12/26 11:20:40;;;;;;;;;4.67;3.00;;;;;25.79;44.48;101599.84;5074214;27;45423;-87
2022/12/26 11:23:21;;;;;;;;;3.33;3.00;;;;;25.77;43.87;101597.25;5067445;27;46030;-88
2022/12/26 11:25:59;;;;;;;;;2.33;2.33;;;;;25.77;44.23;101607.28;5069059;27;46224;-90
2022/12/26 11:28:36;;;;;;;;;6.67;4.00;;;;;25.74;43.63;101605.75;5072297;27;45460;-87
2022/12/26 11:31:06;;;;;;;;;4.33;2.00;;;;;25.73;44.13;101617.63;5071717;28;45417;-87
2022/12/26 11:33:32;;;;;;;;;2.67;1.67;;;;;25.71;43.70;101594.34;5070846;27;45997;-84
2022/12/26 11:36:13;;;;;;;;;2.67;2.67;;;;;25.68;43.65;101592.81;5048732;28;45565;-85
2022/12/26 11:39:01;;;;;;;;;3.67;2.67;;;;;25.64;43.83;101591.41;5073703;28;45468;-85
2022/12/26 11:41:32;;;;;;;;;2.33;2.33;;;;;25.63;44.04;101584.28;5069875;28;45657;-84
2022/12/26 11:44:11;;;;;;;;;3.00;2.67;;;;;25.60;43.50;101590.91;5072493;28;45969;-85
2022/12/26 11:47:07;;;;;;;;;2.00;2.00;;;;;25.58;43.75;101589.34;5076323;27;45399;-83
2022/12/26 11:49:35;;;;;;;;;4.00;2.33;;;;;25.55;43.57;101595.06;5070527;28;45811;-85
2022/12/26 11:52:22;;;;;;;;;3.33;2.00;;;;;25.50;43.66;101596.41;5060316;28;45458;-91
2022/12/26 11:54:49;;;;;;;;;3.00;3.00;;;;;25.50;43.66;101599.13;5072358;28;45559;-91
2022/12/26 11:57:21;;;;;;;;;3.00;3.00;;;;;25.49;43.94;101600.16;5082293;27;45400;-91
2022/12/26 11:59:48;;;;;;;;;4.33;3.67;;;;;25.47;43.35;101591.28;5076922;28;45522;-90
2022/12/26 12:02:18;;;;;;;;;3.67;3.67;;;;;25.45;43.90;101590.59;5077762;28;45457;-91
2022/12/26 12:04:49;;;;;;;;;2.33;2.33;;;;;25.42;43.84;101607.22;5076691;28;45478;-84
2022/12/26 12:07:40;;;;;;;;;2.00;2.00;;;;;25.44;43.31;101599.78;5062098;28;45622;-86
2022/12/26 12:10:23;;;;;;;;;2.00;2.00;;;;;25.47;43.29;101598.59;5069416;28;45394;-87
2022/12/26 12:13:00;;;;;;;;;2.33;1.00;;;;;25.48;43.69;101598.44;5080387;27;45478;-85
2022/12/26 12:15:50;;;;;;;;;1.67;1.67;;;;;25.49;43.74;101604.72;5078079;28;45415;-87
2022/12/26 12:18:45;;;;;;;;;1.33;1.33;;;;;25.49;43.09;101605.59;5074877;27;45522;-86
2022/12/26 12:21:26;;;;;;;;;2.00;2.00;;;;;25.51;43.51;101602.72;5075833;27;45473;-86
2022/12/26 12:24:12;;;;;;;;;2.00;2.00;;;;;25.50;43.55;101593.69;5063266;28;45606;-87
2022/12/26 12:27:00;;;;;;;;;2.00;2.00;;;;;25.50;43.12;101590.16;5077707;27;45812;-87
2022/12/26 12:29:42;;;;;;;;;1.33;1.33;;;;;25.50;43.11;101590.97;5073288;28;45447;-87
2022/12/26 12:32:14;;;;;;;;;2.00;2.00;;;;;25.48;43.71;101593.00;5071754;27;45537;-88
2022/12/26 12:34:58;;;;;;;;;2.00;2.00;;;;;25.49;43.52;101597.44;5056562;28;45831;-87
2022/12/26 12:38:05;;;;;;;;;1.00;1.00;;;;;25.50;43.59;101601.00;5056284;28;47272;-91
2022/12/26 12:40:42;;;;;;;;;1.00;1.00;;;;;25.52;43.37;101604.41;5062166;27;45516;-89
2022/12/26 12:43:21;;;;;;;;;3.00;1.33;;;;;25.53;43.23;101596.09;5066322;27;45552;-89
2022/12/26 12:46:02;;;;;;;;;2.67;1.67;;;;;25.49;43.59;101594.72;5061940;28;45423;-93
2022/12/26 12:48:53;;;;;;;;;2.00;2.00;;;;;25.53;43.15;101603.38;5070142;28;45900;-87
2022/12/26 12:51:40;;;;;;;;;2.00;1.67;;;;;25.53;43.47;101609.69;5069945;28;45690;-86
2022/12/26 12:54:30;;;;;;;;;3.00;2.33;;;;;25.52;43.00;101646.03;5070884;28;45788;-88
2022/12/26 12:57:24;;;;;;;;;1.00;1.00;;;;;25.52;43.23;101656.91;5075188;28;45890;-87
2022/12/26 13:00:16;;;;;;;;;1.33;1.33;;;;;25.51;42.91;101657.06;5067384;28;46159;-85
2022/12/26 13:02:58;;;;;;;;;3.00;1.00;;;;;25.48;42.84;101655.53;5070296;28;45705;-87
2022/12/26 13:05:43;;;;;;;;;2.00;2.00;;;;;25.49;43.10;101659.06;5052775;28;45712;-88
2022/12/26 13:08:21;;;;;;;;;2.00;0.33;;;;;25.48;43.16;101674.56;5055879;28;45647;-86
2022/12/26 13:10:54;;;;;;;;;1.67;1.67;;;;;25.47;43.56;101678.25;5070988;27;46308;-92
2022/12/26 13:13:46;;;;;;;;;3.00;2.00;;;;;25.44;43.50;101672.28;5074309;28;45851;-90
2022/12/26 13:16:15;;;;;;;;;5.67;2.00;;;;;25.49;42.99;101689.84;5063896;28;45777;-85
2022/12/26 13:18:55;;;;;;;;;1.00;1.00;;;;;25.50;43.15;101688.81;5076085;27;45442;-85
2022/12/26 13:21:21;;;;;;;;;3.00;1.00;;;;;25.50;43.20;101694.25;5054173;28;46179;-86
2022/12/26 13:26:48;;;;;;;;;0.67;0.67;;;;;25.50;43.10;101686.09;5056323;28;45395;-87
2022/12/26 13:29:29;;;;;;;;;1.00;1.00;;;;;25.52;43.40;101684.09;5065174;27;45524;-81
2022/12/26 13:31:57;;;;;;;;;3.00;2.00;;;;;25.49;43.35;101692.56;5081354;27;46420;-82
2022/12/26 13:34:22;;;;;;;;;3.33;2.00;;;;;25.47;43.04;101691.00;5074398;28;45498;-83
2022/12/26 13:36:54;;;;;;;;;1.33;1.00;;;;;25.50;43.16;101705.13;5071172;28;45658;-84
2022/12/26 13:39:22;;;;;;;;;1.33;1.33;;;;;25.48;42.96;101707.16;5075078;28;45353;-84
2022/12/26 13:44:36;;;;;;;;;1.33;1.33;;;;;25.47;42.76;101708.16;5073460;28;45321;-84
2022/12/26 13:47:02;;;;;;;;;2.33;2.00;;;;;25.48;42.96;101722.59;5070246;28;45440;-82
2022/12/26 13:49:39;;;;;;;;;1.67;1.67;;;;;25.47;42.84;101716.31;5065446;28;45372;-84
2022/12/26 13:52:11;;;;;;;;;2.00;1.00;;;;;25.47;43.49;101716.31;5072400;28;45446;-84
2022/12/26 13:55:08;;;;;;;;;1.00;1.00;;;;;25.46;42.96;101716.50;5068633;28;47076;-85
2022/12/26 13:57:34;;;;;;;;;3.00;1.00;;;;;25.46;43.01;101711.06;5063119;28;45321;-83
2022/12/26 14:00:07;;;;;;;;;2.67;1.67;;;;;25.45;43.05;101729.22;5068248;28;45979;-84
2022/12/26 14:03:11;;;;;;;;;1.67;1.67;;;;;25.45;42.95;101733.78;5071596;27;47128;-84
2022/12/26 14:06:11;;;;;;;;;1.67;1.00;;;;;25.42;42.94;101736.84;5068718;28;45628;-83
2022/12/26 14:08:51;;;;;;;;;1.00;1.00;;;;;25.42;42.69;101744.97;5060335;28;45581;-84
2022/12/26 14:11:45;;;;;;;;;3.00;1.00;;;;;25.38;43.03;101742.56;5071606;28;45666;-83
2022/12/26 14:14:46;;;;;;;;;2.00;0.67;;;;;25.38;42.84;101749.88;5069916;28;45557;-82
2022/12/26 14:17:33;;;;;;;;;0.67;0.67;;;;;25.38;43.02;101753.44;5074338;27;45469;-83
2022/12/26 14:20:20;;;;;;;;;1.00;1.00;;;;;25.38;42.91;101761.59;5066800;28;45576;-83
2022/12/26 14:22:51;;;;;;;;;1.00;1.00;;;;;25.37;42.90;101778.91;5055844;28;45270;-83
2022/12/26 14:25:31;;;;;;;;;1.33;1.33;;;;;25.36;43.03;101766.34;5054690;28;46151;-83
2022/12/26 14:28:22;;;;;;;;;1.00;1.00;;;;;25.36;42.92;101779.06;5055092;28;45329;-83
2022/12/26 14:31:07;;;;;;;;;1.00;1.00;;;;;25.35;43.13;101780.94;5056312;28;45479;-84
2022/12/26 14:34:17;;;;;;;;;2.00;1.00;;;;;25.34;42.92;101792.81;5055071;28;45442;-83
2022/12/26 14:37:09;;;;;;;;;0.67;0.00;;;;;25.34;42.56;101800.94;4970707;28;46351;-83
2022/12/26 14:39:40;;;;;;;;;0.33;0.33;;;;;25.31;42.33;101797.69;4972081;28;45469;-83
2022/12/26 14:44:59;;;;;;;;;2.67;1.00;;;;;25.30;42.96;101802.28;4934281;28;45760;-83
2022/12/26 14:47:53;;;;;;;;;0.67;0.67;;;;;25.32;42.88;101805.69;4919197;28;46271;-83
2022/12/26 14:50:34;;;;;;;;;2.00;0.33;;;;;25.31;42.52;101811.28;4911234;28;45759;-84
2022/12/26 14:53:29;;;;;;;;;0.33;0.33;;;;;25.30;42.43;101802.28;4952393;28;45860;-83
2022/12/26 14:56:09;;;;;;;;;2.00;2.00;;;;;25.30;42.74;101810.41;4933664;28;45843;-84
2022/12/26 14:58:45;;;;;;;;;2.67;2.00;;;;;25.29;42.65;101818.75;4923107;28;46519;-82
2022/12/26 15:01:17;;;;;;;;;1.00;1.00;;;;;25.29;42.93;101826.91;4933613;28;45307;-83
2022/12/26 15:04:09;;;;;;;;;1.00;1.00;;;;;25.27;42.76;101835.19;4932609;28;45380;-83
2022/12/26 15:06:49;;;;;;;;;1.00;1.00;;;;;25.26;42.65;101845.19;4944372;28;45529;-83
2022/12/26 15:09:35;;;;;;;;;1.00;0.00;;;;;25.26;42.92;101847.09;4924369;28;45639;-83
2022/12/26 15:12:12;;;;;;;;;2.67;1.00;;;;;25.27;42.60;101851.50;4934475;28;45384;-88
2022/12/26 15:15:29;;;;;;;;;0.00;0.00;;;;;25.27;42.47;101862.38;4986592;28;45582;-82
2022/12/26 15:18:19;;;;;;;;;1.00;1.00;;;;;25.28;42.75;101866.78;4953447;28;45481;-82
2022/12/26 15:21:07;;;;;;;;;1.00;1.00;;;;;25.30;42.74;101880.22;4947034;28;46090;-83
2022/12/26 15:23:57;;;;;;;;;0.00;0.00;;;;;25.28;42.38;101877.66;4994837;28;45560;-83
2022/12/26 15:26:44;;;;;;;;;2.00;1.00;;;;;25.28;42.21;101891.25;4996055;28;45445;-79
2022/12/26 15:29:18;;;;;;;;;2.67;1.00;;;;;25.27;42.12;101882.22;4994467;28;47068;-78
2022/12/26 15:31:56;;;;;;;;;1.00;1.00;;;;;25.26;42.37;101891.38;4992566;28;46115;-84
2022/12/26 15:34:36;;;;;;;;;1.33;1.33;;;;;25.26;42.32;101896.81;4993726;28;45564;-85
2022/12/26 15:37:13;;;;;;;;;2.67;2.00;;;;;25.26;42.09;101910.41;4994663;28;45793;-84
2022/12/26 15:39:49;;;;;;;;;3.00;2.00;;;;;25.27;42.20;101919.44;4978975;28;45915;-84
2022/12/26 15:42:33;;;;;;;;;1.00;1.00;;;;;25.29;42.12;101914.69;4995788;28;45494;-83
2022/12/26 15:45:13;;;;;;;;;4.00;2.33;;;;;25.30;42.24;101912.84;4994906;28;45602;-83
2022/12/26 15:47:51;;;;;;;;;1.00;1.00;;;;;25.33;42.31;101923.38;4995314;28;45553;-84
2022/12/26 15:50:27;;;;;;;;;2.33;1.00;;;;;25.36;42.60;101931.25;4996273;28;45422;-84
2022/12/26 15:53:20;;;;;;;;;2.00;1.00;;;;;25.38;41.83;101943.66;5077664;28;46396;-83
2022/12/26 15:55:58;;;;;;;;;1.00;1.00;;;;;25.41;42.24;101938.94;5058493;28;46046;-84
2022/12/26 15:59:00;;;;;;;;;3.00;0.67;;;;;25.43;42.25;101947.78;5051578;27;45455;-84
2022/12/26 16:01:39;;;;;;;;;1.00;1.00;;;;;25.46;42.00;101958.38;5082188;27;45612;-84
2022/12/26 16:04:16;;;;;;;;;2.00;1.00;;;;;25.47;41.89;101954.63;5073176;28;46060;-85
2022/12/26 16:06:55;;;;;;;;;7.00;3.00;;;;;25.51;41.89;101967.75;5072831;28;45492;-84
2022/12/26 16:09:43;;;;;;;;;1.33;0.33;;;;;25.55;42.42;101968.38;5078200;28;45441;-84
2022/12/26 16:12:30;;;;;;;;;3.67;2.00;;;;;25.59;41.90;101972.47;5077250;27;45484;-84
2022/12/26 16:15:07;;;;;;;;;1.00;1.00;;;;;25.62;42.17;101974.88;5074825;28;45421;-85
2022/12/26 16:17:33;;;;;;;;;0.67;0.33;;;;;25.68;42.21;101983.44;5077728;28;45884;-83
2022/12/26 16:19:58;;;;;;;;;3.00;1.67;;;;;25.70;42.11;101987.72;5086734;27;45423;-86
2022/12/26 16:22:42;;;;;;;;;3.00;2.00;;;;;25.72;42.29;101987.56;5091318;27;45642;-89
2022/12/26 16:25:09;;;;;;;;;4.00;2.67;;;;;25.74;41.63;101993.69;5065589;27;46385;-86
2022/12/26 16:27:36;;;;;;;;;3.00;1.33;;;;;25.76;41.67;101992.53;5075590;28;45511;-83
2022/12/26 16:30:11;;;;;;;;;3.00;2.67;;;;;25.79;41.97;101997.66;5073940;27;45542;-85
2022/12/26 16:32:40;;;;;;;;;1.67;1.00;;;;;25.81;42.03;102005.69;5068112;28;45479;-85
2022/12/26 16:35:13;;;;;;;;;2.00;1.00;;;;;25.82;42.13;102014.69;5058168;28;46132;-85
2022/12/26 16:37:41;;;;;;;;;2.67;2.67;;;;;25.82;42.15;102017.41;5087757;27;45503;-85
2022/12/26 16:40:18;;;;;;;;;3.00;2.00;;;;;25.83;41.91;102019.97;5077859;28;46094;-85
2022/12/26 16:42:54;;;;;;;;;3.00;2.00;;;;;25.82;41.36;102015.53;5056606;28;45556;-85
2022/12/26 16:45:21;;;;;;;;;2.00;2.00;;;;;25.84;41.47;102026.28;5064191;27;45401;-89
2022/12/26 16:47:48;;;;;;;;;3.67;3.00;;;;;25.82;41.45;102029.13;5075299;27;45837;-89
2022/12/26 16:50:17;;;;;;;;;5.33;2.00;;;;;25.79;41.54;102024.84;5076698;27;45401;-82
2022/12/26 16:52:42;;;;;;;;;2.00;1.67;;;;;25.77;41.81;102032.31;5062246;27;45550;-81
2022/12/26 16:55:22;;;;;;;;;4.00;2.00;;;;;25.74;41.75;102029.03;5067669;27;45519;-82
2022/12/26 16:57:50;;;;;;;;;6.33;3.33;;;;;25.74;41.35;102038.06;5066179;27;45532;-82
2022/12/26 17:00:18;;;;;;;;;3.67;2.00;;;;;25.73;41.77;102030.06;5067369;28;45344;-80
2022/12/26 17:02:47;;;;;;;;;6.33;3.00;;;;;25.73;41.72;102038.22;5074981;28;45551;-81
2022/12/26 17:05:24;;;;;;;;;1.00;1.00;;;;;25.73;41.29;102043.66;5075929;28;45381;-81
2022/12/26 17:07:52;;;;;;;;;2.33;2.00;;;;;25.73;41.63;102046.38;5076497;27;45459;-82
2022/12/26 17:10:24;;;;;;;;;2.00;1.33;;;;;25.73;41.14;102049.09;5058193;27;45455;-82
2022/12/26 17:12:51;;;;;;;;;3.33;2.00;;;;;25.74;41.42;102059.81;5057261;28;45620;-82
2022/12/26 17:15:27;;;;;;;;;3.00;2.67;;;;;25.75;41.17;102075.13;5058257;28;46326;-83
2022/12/26 17:17:52;;;;;;;;;1.67;1.00;;;;;25.76;41.77;102075.97;5069586;28;45741;-82
2022/12/26 17:20:23;;;;;;;;;4.00;3.33;;;;;25.77;41.27;102081.28;5080851;27;45490;-82
2022/12/26 17:22:55;;;;;;;;;4.00;2.00;;;;;25.77;41.32;102092.16;5064233;28;45567;-83
2022/12/26 17:25:26;;;;;;;;;5.00;3.00;;;;;25.78;41.59;102096.56;5055518;28;46660;-85
